Celtic Voyager — EIQN — position and weather

sailwx.info

Track history (hours):
 
Tides and Currents Weather Stations Pressure Air Temp Water Temp Dewpoint Dewpoint Depression Visibility Wind Speed Wind Dir Waves Ship Positions

Oceanographic research ship Celtic Voyager (Ireland)

Detailed information on ship capabilities available from University of Delaware's Ocean Information Center.

Last reported at 2020-Sep-18 06:32 UTC. Time now 2020-Sep-20 19:57 UTC.
Position N 52°55' W 009°57'.

Length 31 m; beam 8 m.

Type: Ship. MMSI: 250089000.

Date/timePositionNaut miles runAvg speedWind from/ knotsBaromVisibWave heightAir tempDewpointWater temp
2020-Sep-18 06:32N 52°55' W 009°57'10 6.3
2020-Sep-18 05:00N 52°49' W 010°09'84 7.0
2020-Sep-17 17:00N 51°25' W 010°09'16 8.9
2020-Sep-17 15:12N 51°13' W 009°53'  
2020-Sep-15 07:29N 51°32' W 009°54'7 3.7
2020-Sep-15 05:29N 51°37' W 009°46'1 0.4
2020-Sep-15 03:00N 51°38' W 009°45'0 0.8
2020-Sep-15 02:28N 51°38' W 009°44'1 0.1
2020-Sep-14 21:00N 51°38' W 009°43'1 0.5
2020-Sep-14 20:00N 51°38' W 009°43'9 1.7
2020-Sep-14 14:30N 51°35' W 009°57'  
2020-Sep-12 08:26N 51°39' W 009°49'0 0.0
2020-Sep-12 04:47N 51°39' W 009°49'0 0.0
2020-Sep-11 23:38N 51°39' W 009°49'0 0.0
2020-Sep-11 18:34N 51°39' W 009°49'  
2020-Sep-08 13:04N 50°37' W 008°40'  
Track history (hours):
 
Tides and Currents Weather Stations Pressure Air Temp Water Temp Dewpoint Dewpoint Depression Visibility Wind Speed Wind Dir Waves Ship Positions

Oceanographic research ship Celtic Voyager (Ireland)

Detailed information on ship capabilities available from University of Delaware's Ocean Information Center.

Last reported at 2020-Sep-18 06:32 UTC. Time now 2020-Sep-20 19:57 UTC.
Position N 52°55' W 009°57'.

Length 31 m; beam 8 m.

Type: Ship. MMSI: 250089000.

Date/timePositionNaut miles runAvg speedWind from/ knotsBaromVisibWave heightAir tempDewpointWater temp
2020-Sep-18 06:32N 52°55' W 009°57'10 6.3
2020-Sep-18 05:00N 52°49' W 010°09'84 7.0
2020-Sep-17 17:00N 51°25' W 010°09'16 8.9
2020-Sep-17 15:12N 51°13' W 009°53'  
2020-Sep-15 07:29N 51°32' W 009°54'7 3.7
2020-Sep-15 05:29N 51°37' W 009°46'1 0.4
2020-Sep-15 03:00N 51°38' W 009°45'0 0.8
2020-Sep-15 02:28N 51°38' W 009°44'1 0.1
2020-Sep-14 21:00N 51°38' W 009°43'1 0.5
2020-Sep-14 20:00N 51°38' W 009°43'9 1.7
2020-Sep-14 14:30N 51°35' W 009°57'  
2020-Sep-12 08:26N 51°39' W 009°49'0 0.0
2020-Sep-12 04:47N 51°39' W 009°49'0 0.0
2020-Sep-11 23:38N 51°39' W 009°49'0 0.0
2020-Sep-11 18:34N 51°39' W 009°49'  
2020-Sep-08 13:04N 50°37' W 008°40'  

Dump ship's entire track history